sensor_id;sensor_type;location;lat;lon;timestamp;temperature;humidity
6978;DHT22;3529;53.244;10.414;2022-09-03T00:01:49;14.60;99.90
6978;DHT22;3529;53.244;10.414;2022-09-03T00:04:31;14.70;99.90
6978;DHT22;3529;53.244;10.414;2022-09-03T00:07:02;14.60;99.90
6978;DHT22;3529;53.244;10.414;2022-09-03T00:09:42;14.50;99.90
6978;DHT22;3529;53.244;10.414;2022-09-03T00:12:15;14.50;99.90
6978;DHT22;3529;53.244;10.414;2022-09-03T00:14:59;14.50;99.90
6978;DHT22;3529;53.244;10.414;2022-09-03T00:17:33;14.40;99.90
6978;DHT22;3529;53.244;10.414;2022-09-03T00:20:10;14.40;99.90
6978;DHT22;3529;53.244;10.414;2022-09-03T00:22:44;14.30;99.90
6978;DHT22;3529;53.244;10.414;2022-09-03T00:25:17;14.30;99.90
6978;DHT22;3529;53.244;10.414;2022-09-03T00:27:48;14.30;99.90
6978;DHT22;3529;53.244;10.414;2022-09-03T00:30:16;14.30;99.90
6978;DHT22;3529;53.244;10.414;2022-09-03T00:33:00;14.20;99.90
6978;DHT22;3529;53.244;10.414;2022-09-03T00:35:45;14.20;99.90
6978;DHT22;3529;53.244;10.414;2022-09-03T00:38:13;14.20;99.90
6978;DHT22;3529;53.244;10.414;2022-09-03T00:41:03;14.20;99.90
6978;DHT22;3529;53.244;10.414;2022-09-03T00:46:59;14.20;99.90
6978;DHT22;3529;53.244;10.414;2022-09-03T01:00:00;14.30;99.90
6978;DHT22;3529;53.244;10.414;2022-09-03T01:08:24;14.40;99.90
6978;DHT22;3529;53.244;10.414;2022-09-03T01:11:05;14.40;99.90
6978;DHT22;3529;53.244;10.414;2022-09-03T01:19:39;14.20;99.90
6978;DHT22;3529;53.244;10.414;2022-09-03T01:24:59;14.20;99.90
6978;DHT22;3529;53.244;10.414;2022-09-03T01:30:30;14.10;99.90
6978;DHT22;3529;53.244;10.414;2022-09-03T01:33:02;14.10;99.90
6978;DHT22;3529;53.244;10.414;2022-09-03T01:35:46;14.00;99.90
6978;DHT22;3529;53.244;10.414;2022-09-03T01:41:08;13.90;99.90
6978;DHT22;3529;53.244;10.414;2022-09-03T01:44:05;13.90;99.90
6978;DHT22;3529;53.244;10.414;2022-09-03T01:46:42;13.80;99.90
6978;DHT22;3529;53.244;10.414;2022-09-03T01:49:31;13.80;99.90
6978;DHT22;3529;53.244;10.414;2022-09-03T01:52:14;13.70;99.90
6978;DHT22;3529;53.244;10.414;2022-09-03T01:54:56;13.60;99.90
6978;DHT22;3529;53.244;10.414;2022-09-03T02:00:08;13.50;99.90
6978;DHT22;3529;53.244;10.414;2022-09-03T02:02:34;13.50;99.90
6978;DHT22;3529;53.244;10.414;2022-09-03T02:05:04;13.40;99.90
6978;DHT22;3529;53.244;10.414;2022-09-03T02:07:40;13.40;99.90
6978;DHT22;3529;53.244;10.414;2022-09-03T02:10:16;13.30;99.90
6978;DHT22;3529;53.244;10.414;2022-09-03T02:12:50;13.30;99.90
6978;DHT22;3529;53.244;10.414;2022-09-03T02:15:19;13.30;99.90
6978;DHT22;3529;53.244;10.414;2022-09-03T02:17:46;13.20;99.90
6978;DHT22;3529;53.244;10.414;2022-09-03T02:20:26;13.20;99.90
6978;DHT22;3529;53.244;10.414;2022-09-03T02:22:52;13.10;99.90
6978;DHT22;3529;53.244;10.414;2022-09-03T02:25:21;13.10;99.90
6978;DHT22;3529;53.244;10.414;2022-09-03T02:27:48;13.00;99.90
6978;DHT22;3529;53.244;10.414;2022-09-03T02:30:14;13.00;99.90
6978;DHT22;3529;53.244;10.414;2022-09-03T02:32:40;13.00;99.90
6978;DHT22;3529;53.244;10.414;2022-09-03T02:35:08;12.90;99.90
6978;DHT22;3529;53.244;10.414;2022-09-03T02:37:34;12.90;99.90
6978;DHT22;3529;53.244;10.414;2022-09-03T02:40:00;13.00;99.90
6978;DHT22;3529;53.244;10.414;2022-09-03T02:42:26;12.90;99.90
6978;DHT22;3529;53.244;10.414;2022-09-03T02:44:56;12.90;99.90
6978;DHT22;3529;53.244;10.414;2022-09-03T02:47:22;13.00;99.90
6978;DHT22;3529;53.244;10.414;2022-09-03T02:49:53;13.00;99.90
6978;DHT22;3529;53.244;10.414;2022-09-03T02:52:18;12.90;99.90
6978;DHT22;3529;53.244;10.414;2022-09-03T02:54:44;13.00;99.90
6978;DHT22;3529;53.244;10.414;2022-09-03T02:57:15;13.00;99.90
6978;DHT22;3529;53.244;10.414;2022-09-03T02:59:41;13.00;99.90
6978;DHT22;3529;53.244;10.414;2022-09-03T03:02:11;12.90;99.90
6978;DHT22;3529;53.244;10.414;2022-09-03T03:04:37;13.00;99.90
6978;DHT22;3529;53.244;10.414;2022-09-03T03:07:04;13.00;99.90
6978;DHT22;3529;53.244;10.414;2022-09-03T03:09:30;13.00;99.90
6978;DHT22;3529;53.244;10.414;2022-09-03T03:11:56;13.00;99.90
6978;DHT22;3529;53.244;10.414;2022-09-03T03:14:21;13.00;99.90
6978;DHT22;3529;53.244;10.414;2022-09-03T03:16:48;12.90;99.90
6978;DHT22;3529;53.244;10.414;2022-09-03T03:19:13;12.90;99.90
6978;DHT22;3529;53.244;10.414;2022-09-03T03:21:39;12.90;99.90
6978;DHT22;3529;53.244;10.414;2022-09-03T03:24:05;12.90;99.90
6978;DHT22;3529;53.244;10.414;2022-09-03T03:26:31;12.90;99.90
6978;DHT22;3529;53.244;10.414;2022-09-03T03:28:58;12.90;99.90
6978;DHT22;3529;53.244;10.414;2022-09-03T03:31:25;12.80;99.90
6978;DHT22;3529;53.244;10.414;2022-09-03T03:33:59;12.80;99.90
6978;DHT22;3529;53.244;10.414;2022-09-03T03:36:27;12.80;99.90
6978;DHT22;3529;53.244;10.414;2022-09-03T03:38:55;12.80;99.90
6978;DHT22;3529;53.244;10.414;2022-09-03T03:41:23;12.80;99.90
6978;DHT22;3529;53.244;10.414;2022-09-03T03:43:57;12.70;99.90
6978;DHT22;3529;53.244;10.414;2022-09-03T03:46:24;12.70;99.90
6978;DHT22;3529;53.244;10.414;2022-09-03T03:48:50;12.70;99.90
6978;DHT22;3529;53.244;10.414;2022-09-03T03:51:17;12.70;99.90
6978;DHT22;3529;53.244;10.414;2022-09-03T03:53:43;12.60;99.90
6978;DHT22;3529;53.244;10.414;2022-09-03T03:56:11;12.60;99.90
6978;DHT22;3529;53.244;10.414;2022-09-03T03:58:38;12.50;99.90
6978;DHT22;3529;53.244;10.414;2022-09-03T04:01:16;12.50;99.90
6978;DHT22;3529;53.244;10.414;2022-09-03T04:03:43;12.40;99.90
6978;DHT22;3529;53.244;10.414;2022-09-03T04:06:10;12.40;99.90
6978;DHT22;3529;53.244;10.414;2022-09-03T04:08:38;12.40;99.90
6978;DHT22;3529;53.244;10.414;2022-09-03T04:11:07;12.30;99.90
6978;DHT22;3529;53.244;10.414;2022-09-03T04:13:34;12.30;99.90
6978;DHT22;3529;53.244;10.414;2022-09-03T04:16:12;12.30;99.90
6978;DHT22;3529;53.244;10.414;2022-09-03T04:18:39;12.20;99.90
6978;DHT22;3529;53.244;10.414;2022-09-03T04:21:10;12.20;99.90
6978;DHT22;3529;53.244;10.414;2022-09-03T04:23:38;12.10;99.90
6978;DHT22;3529;53.244;10.414;2022-09-03T04:26:05;12.10;99.90
6978;DHT22;3529;53.244;10.414;2022-09-03T04:28:32;12.10;99.90
6978;DHT22;3529;53.244;10.414;2022-09-03T04:31:05;12.10;99.90
6978;DHT22;3529;53.244;10.414;2022-09-03T04:33:32;12.00;99.90
6978;DHT22;3529;53.244;10.414;2022-09-03T04:36:09;12.00;99.90
6978;DHT22;3529;53.244;10.414;2022-09-03T04:38:37;12.00;99.90
6978;DHT22;3529;53.244;10.414;2022-09-03T04:41:04;12.00;99.90
6978;DHT22;3529;53.244;10.414;2022-09-03T04:43:30;12.00;99.90
6978;DHT22;3529;53.244;10.414;2022-09-03T04:45:57;12.10;99.90
6978;DHT22;3529;53.244;10.414;2022-09-03T04:48:24;12.10;99.90
6978;DHT22;3529;53.244;10.414;2022-09-03T04:50:49;12.00;99.90
6978;DHT22;3529;53.244;10.414;2022-09-03T04:53:15;12.10;99.90
6978;DHT22;3529;53.244;10.414;2022-09-03T04:55:41;12.00;99.90
6978;DHT22;3529;53.244;10.414;2022-09-03T04:58:06;12.00;99.90
6978;DHT22;3529;53.244;10.414;2022-09-03T05:00:35;12.10;99.90
6978;DHT22;3529;53.244;10.414;2022-09-03T05:03:01;12.10;99.90
6978;DHT22;3529;53.244;10.414;2022-09-03T05:05:27;12.10;99.90
6978;DHT22;3529;53.244;10.414;2022-09-03T05:07:57;12.10;99.90
6978;DHT22;3529;53.244;10.414;2022-09-03T05:10:23;12.10;99.90
6978;DHT22;3529;53.244;10.414;2022-09-03T05:13:02;12.10;99.90
6978;DHT22;3529;53.244;10.414;2022-09-03T05:15:29;12.10;99.90
6978;DHT22;3529;53.244;10.414;2022-09-03T05:17:59;12.10;99.90
6978;DHT22;3529;53.244;10.414;2022-09-03T05:20:26;12.10;99.90
6978;DHT22;3529;53.244;10.414;2022-09-03T05:22:55;12.20;99.90
6978;DHT22;3529;53.244;10.414;2022-09-03T05:25:21;12.20;99.90
6978;DHT22;3529;53.244;10.414;2022-09-03T05:27:47;12.20;99.90
6978;DHT22;3529;53.244;10.414;2022-09-03T05:30:13;12.10;99.90
6978;DHT22;3529;53.244;10.414;2022-09-03T05:32:39;12.10;99.90
6978;DHT22;3529;53.244;10.414;2022-09-03T05:35:06;12.20;99.90
6978;DHT22;3529;53.244;10.414;2022-09-03T05:37:32;12.20;99.90
6978;DHT22;3529;53.244;10.414;2022-09-03T05:39:58;12.30;99.90
6978;DHT22;3529;53.244;10.414;2022-09-03T05:42:23;12.40;99.90
6978;DHT22;3529;53.244;10.414;2022-09-03T05:44:50;12.40;99.90
6978;DHT22;3529;53.244;10.414;2022-09-03T05:47:15;12.50;99.90
6978;DHT22;3529;53.244;10.414;2022-09-03T05:49:41;12.60;99.90
6978;DHT22;3529;53.244;10.414;2022-09-03T05:52:07;12.70;99.90
6978;DHT22;3529;53.244;10.414;2022-09-03T05:54:34;12.70;99.90
6978;DHT22;3529;53.244;10.414;2022-09-03T05:57:00;12.80;99.90
6978;DHT22;3529;53.244;10.414;2022-09-03T05:59:25;12.80;99.90
6978;DHT22;3529;53.244;10.414;2022-09-03T06:01:54;12.80;99.90
6978;DHT22;3529;53.244;10.414;2022-09-03T06:04:20;12.80;99.90
6978;DHT22;3529;53.244;10.414;2022-09-03T06:06:46;12.90;99.90
6978;DHT22;3529;53.244;10.414;2022-09-03T06:09:17;12.90;99.90
6978;DHT22;3529;53.244;10.414;2022-09-03T06:11:45;13.00;99.90
6978;DHT22;3529;53.244;10.414;2022-09-03T06:14:13;13.10;99.90
6978;DHT22;3529;53.244;10.414;2022-09-03T06:16:42;13.10;99.90
6978;DHT22;3529;53.244;10.414;2022-09-03T06:19:09;13.20;99.90
6978;DHT22;3529;53.244;10.414;2022-09-03T06:21:40;13.20;99.90
6978;DHT22;3529;53.244;10.414;2022-09-03T06:24:12;13.20;99.90
6978;DHT22;3529;53.244;10.414;2022-09-03T06:26:38;13.30;99.90
6978;DHT22;3529;53.244;10.414;2022-09-03T06:29:05;13.40;99.90
6978;DHT22;3529;53.244;10.414;2022-09-03T06:31:31;13.40;99.90
6978;DHT22;3529;53.244;10.414;2022-09-03T06:33:57;13.50;99.90
6978;DHT22;3529;53.244;10.414;2022-09-03T06:36:24;13.60;99.90
6978;DHT22;3529;53.244;10.414;2022-09-03T06:38:53;13.70;99.90
6978;DHT22;3529;53.244;10.414;2022-09-03T06:41:21;13.80;99.90
6978;DHT22;3529;53.244;10.414;2022-09-03T06:43:53;13.90;99.90
6978;DHT22;3529;53.244;10.414;2022-09-03T06:46:21;14.00;99.90
6978;DHT22;3529;53.244;10.414;2022-09-03T06:48:47;14.10;99.90
6978;DHT22;3529;53.244;10.414;2022-09-03T06:51:15;14.10;99.90
6978;DHT22;3529;53.244;10.414;2022-09-03T06:53:43;14.20;99.90
6978;DHT22;3529;53.244;10.414;2022-09-03T06:56:11;14.30;99.90
6978;DHT22;3529;53.244;10.414;2022-09-03T06:58:39;14.40;99.90
6978;DHT22;3529;53.244;10.414;2022-09-03T07:01:13;14.50;99.90
6978;DHT22;3529;53.244;10.414;2022-09-03T07:03:41;14.60;99.90
6978;DHT22;3529;53.244;10.414;2022-09-03T07:06:15;14.60;99.90
6978;DHT22;3529;53.244;10.414;2022-09-03T07:08:41;14.70;99.90
6978;DHT22;3529;53.244;10.414;2022-09-03T07:11:10;14.80;99.90
6978;DHT22;3529;53.244;10.414;2022-09-03T07:13:38;14.90;99.90
6978;DHT22;3529;53.244;10.414;2022-09-03T07:16:16;15.00;99.90
6978;DHT22;3529;53.244;10.414;2022-09-03T07:18:42;15.00;99.90
6978;DHT22;3529;53.244;10.414;2022-09-03T07:21:23;15.10;99.90
6978;DHT22;3529;53.244;10.414;2022-09-03T07:23:50;15.10;99.90
6978;DHT22;3529;53.244;10.414;2022-09-03T07:26:31;15.20;99.90
6978;DHT22;3529;53.244;10.414;2022-09-03T07:28:57;15.20;99.90
6978;DHT22;3529;53.244;10.414;2022-09-03T07:31:30;15.20;99.90
6978;DHT22;3529;53.244;10.414;2022-09-03T07:34:01;15.30;99.90
6978;DHT22;3529;53.244;10.414;2022-09-03T07:36:31;15.40;99.90
6978;DHT22;3529;53.244;10.414;2022-09-03T07:38:59;15.50;99.90
6978;DHT22;3529;53.244;10.414;2022-09-03T07:41:26;15.70;99.90
6978;DHT22;3529;53.244;10.414;2022-09-03T07:43:52;15.80;99.90
6978;DHT22;3529;53.244;10.414;2022-09-03T07:46:26;15.90;99.90
6978;DHT22;3529;53.244;10.414;2022-09-03T07:48:53;16.00;99.90
6978;DHT22;3529;53.244;10.414;2022-09-03T07:51:20;16.10;99.90
6978;DHT22;3529;53.244;10.414;2022-09-03T07:53:47;16.30;99.90
6978;DHT22;3529;53.244;10.414;2022-09-03T07:56:13;16.40;99.90
6978;DHT22;3529;53.244;10.414;2022-09-03T07:58:40;16.50;99.90
6978;DHT22;3529;53.244;10.414;2022-09-03T08:01:07;16.60;99.90
6978;DHT22;3529;53.244;10.414;2022-09-03T08:03:36;16.70;99.90
6978;DHT22;3529;53.244;10.414;2022-09-03T08:06:04;16.70;99.90
6978;DHT22;3529;53.244;10.414;2022-09-03T08:08:31;16.80;99.90
6978;DHT22;3529;53.244;10.414;2022-09-03T08:11:18;16.90;99.90
6978;DHT22;3529;53.244;10.414;2022-09-03T08:13:47;16.90;99.90
6978;DHT22;3529;53.244;10.414;2022-09-03T08:16:15;17.00;99.90
6978;DHT22;3529;53.244;10.414;2022-09-03T08:18:41;17.10;99.90
6978;DHT22;3529;53.244;10.414;2022-09-03T08:21:12;17.30;99.90
6978;DHT22;3529;53.244;10.414;2022-09-03T08:23:41;17.40;99.90
6978;DHT22;3529;53.244;10.414;2022-09-03T08:26:07;17.50;99.90
6978;DHT22;3529;53.244;10.414;2022-09-03T08:28:34;17.50;99.90
6978;DHT22;3529;53.244;10.414;2022-09-03T08:31:12;17.60;99.90
6978;DHT22;3529;53.244;10.414;2022-09-03T08:33:43;17.70;99.90
6978;DHT22;3529;53.244;10.414;2022-09-03T08:38:40;17.80;99.90
6978;DHT22;3529;53.244;10.414;2022-09-03T08:41:19;17.90;99.90
6978;DHT22;3529;53.244;10.414;2022-09-03T08:44:21;18.00;99.90
6978;DHT22;3529;53.244;10.414;2022-09-03T08:52:00;18.60;99.90
6978;DHT22;3529;53.244;10.414;2022-09-03T08:54:29;18.60;99.90
6978;DHT22;3529;53.244;10.414;2022-09-03T08:56:59;18.60;99.90
6978;DHT22;3529;53.244;10.414;2022-09-03T08:59:25;18.70;99.90
6978;DHT22;3529;53.244;10.414;2022-09-03T09:01:53;18.70;99.90
6978;DHT22;3529;53.244;10.414;2022-09-03T09:07:43;18.70;99.90
6978;DHT22;3529;53.244;10.414;2022-09-03T09:15:50;19.00;99.90
6978;DHT22;3529;53.244;10.414;2022-09-03T09:21:30;19.30;99.90
6978;DHT22;3529;53.244;10.414;2022-09-03T09:24:01;19.60;99.90
6978;DHT22;3529;53.244;10.414;2022-09-03T09:26:28;19.80;99.90
6978;DHT22;3529;53.244;10.414;2022-09-03T09:29:03;19.90;99.90
6978;DHT22;3529;53.244;10.414;2022-09-03T09:31:30;19.80;99.90
6978;DHT22;3529;53.244;10.414;2022-09-03T09:34:06;19.90;99.90
6978;DHT22;3529;53.244;10.414;2022-09-03T09:36:41;20.00;99.90
6978;DHT22;3529;53.244;10.414;2022-09-03T09:39:11;20.10;99.90
6978;DHT22;3529;53.244;10.414;2022-09-03T09:41:40;20.10;99.90
6978;DHT22;3529;53.244;10.414;2022-09-03T09:44:07;20.20;99.90
6978;DHT22;3529;53.244;10.414;2022-09-03T09:46:37;20.30;99.90
6978;DHT22;3529;53.244;10.414;2022-09-03T09:49:30;20.40;99.90
6978;DHT22;3529;53.244;10.414;2022-09-03T09:52:01;20.70;99.90
6978;DHT22;3529;53.244;10.414;2022-09-03T09:54:27;21.40;99.90
6978;DHT22;3529;53.244;10.414;2022-09-03T09:57:05;22.00;99.90
6978;DHT22;3529;53.244;10.414;2022-09-03T09:59:32;22.50;99.90
6978;DHT22;3529;53.244;10.414;2022-09-03T10:02:14;23.00;99.90
6978;DHT22;3529;53.244;10.414;2022-09-03T10:04:41;23.50;99.90
6978;DHT22;3529;53.244;10.414;2022-09-03T10:12:29;27.60;99.90
6978;DHT22;3529;53.244;10.414;2022-09-03T10:15:21;28.90;99.90
6978;DHT22;3529;53.244;10.414;2022-09-03T10:18:13;29.90;97.40
6978;DHT22;3529;53.244;10.414;2022-09-03T10:24:08;30.40;94.10
6978;DHT22;3529;53.244;10.414;2022-09-03T10:26:40;29.60;93.50
6978;DHT22;3529;53.244;10.414;2022-09-03T10:29:09;29.40;93.50
6978;DHT22;3529;53.244;10.414;2022-09-03T10:31:47;28.90;93.10
6978;DHT22;3529;53.244;10.414;2022-09-03T10:35:33;28.50;92.70
6978;DHT22;3529;53.244;10.414;2022-09-03T10:41:06;26.40;93.10
6978;DHT22;3529;53.244;10.414;2022-09-03T10:43:44;25.90;93.50
6978;DHT22;3529;53.244;10.414;2022-09-03T10:46:25;25.50;94.50
6978;DHT22;3529;53.244;10.414;2022-09-03T10:52:31;24.90;94.80
6978;DHT22;3529;53.244;10.414;2022-09-03T10:57:49;24.70;94.40
6978;DHT22;3529;53.244;10.414;2022-09-03T11:00:18;24.60;94.00
6978;DHT22;3529;53.244;10.414;2022-09-03T11:03:00;24.50;92.60
6978;DHT22;3529;53.244;10.414;2022-09-03T11:05:37;24.50;92.40
6978;DHT22;3529;53.244;10.414;2022-09-03T11:08:13;24.10;91.70
6978;DHT22;3529;53.244;10.414;2022-09-03T11:10:45;23.80;93.10
6978;DHT22;3529;53.244;10.414;2022-09-03T11:13:15;23.50;92.60
6978;DHT22;3529;53.244;10.414;2022-09-03T11:15:57;23.70;92.10
6978;DHT22;3529;53.244;10.414;2022-09-03T11:18:32;23.80;92.10
6978;DHT22;3529;53.244;10.414;2022-09-03T11:21:03;24.00;91.50
6978;DHT22;3529;53.244;10.414;2022-09-03T11:23:37;24.10;90.90
6978;DHT22;3529;53.244;10.414;2022-09-03T11:26:07;24.10;91.90
6978;DHT22;3529;53.244;10.414;2022-09-03T11:36:50;25.10;90.40
6978;DHT22;3529;53.244;10.414;2022-09-03T11:41:58;25.40;91.30
6978;DHT22;3529;53.244;10.414;2022-09-03T11:44:35;25.40;91.50
6978;DHT22;3529;53.244;10.414;2022-09-03T11:47:16;25.30;91.00
6978;DHT22;3529;53.244;10.414;2022-09-03T11:49:48;25.20;90.80
6978;DHT22;3529;53.244;10.414;2022-09-03T11:52:28;24.80;88.90
6978;DHT22;3529;53.244;10.414;2022-09-03T11:54:54;24.70;90.80
6978;DHT22;3529;53.244;10.414;2022-09-03T11:57:25;25.90;91.10
6978;DHT22;3529;53.244;10.414;2022-09-03T11:59:51;27.10;90.70
6978;DHT22;3529;53.244;10.414;2022-09-03T12:02:35;28.20;89.70
6978;DHT22;3529;53.244;10.414;2022-09-03T12:05:19;28.20;89.40
6978;DHT22;3529;53.244;10.414;2022-09-03T12:18:33;25.80;90.30
6978;DHT22;3529;53.244;10.414;2022-09-03T12:21:03;26.70;91.30
6978;DHT22;3529;53.244;10.414;2022-09-03T12:25:56;28.60;90.00
6978;DHT22;3529;53.244;10.414;2022-09-03T12:28:25;29.30;85.30
6978;DHT22;3529;53.244;10.414;2022-09-03T12:30:52;29.50;88.90
6978;DHT22;3529;53.244;10.414;2022-09-03T12:33:20;29.80;84.50
6978;DHT22;3529;53.244;10.414;2022-09-03T12:35:59;29.80;85.00
6978;DHT22;3529;53.244;10.414;2022-09-03T12:38:27;30.00;84.30
6978;DHT22;3529;53.244;10.414;2022-09-03T12:40:54;29.90;84.70
6978;DHT22;3529;53.244;10.414;2022-09-03T12:43:26;29.50;83.10
6978;DHT22;3529;53.244;10.414;2022-09-03T12:45:52;28.50;82.70
6978;DHT22;3529;53.244;10.414;2022-09-03T12:48:19;27.60;84.20
6978;DHT22;3529;53.244;10.414;2022-09-03T12:50:47;27.10;80.50
6978;DHT22;3529;53.244;10.414;2022-09-03T12:53:20;26.90;82.20
6978;DHT22;3529;53.244;10.414;2022-09-03T12:55:54;27.00;85.10
6978;DHT22;3529;53.244;10.414;2022-09-03T12:58:36;27.40;82.70
6978;DHT22;3529;53.244;10.414;2022-09-03T13:01:20;27.60;85.20
6978;DHT22;3529;53.244;10.414;2022-09-03T13:04:08;27.80;84.70
6978;DHT22;3529;53.244;10.414;2022-09-03T13:09:33;27.50;84.80
6978;DHT22;3529;53.244;10.414;2022-09-03T13:12:00;27.30;84.30
6978;DHT22;3529;53.244;10.414;2022-09-03T13:14:44;27.30;86.00
6978;DHT22;3529;53.244;10.414;2022-09-03T13:28:15;25.40;86.10
6978;DHT22;3529;53.244;10.414;2022-09-03T13:33:33;24.90;85.90
6978;DHT22;3529;53.244;10.414;2022-09-03T13:36:19;25.00;85.80
6978;DHT22;3529;53.244;10.414;2022-09-03T13:41:42;25.80;84.50
6978;DHT22;3529;53.244;10.414;2022-09-03T13:44:33;26.10;83.70
6978;DHT22;3529;53.244;10.414;2022-09-03T13:47:16;26.20;84.80
6978;DHT22;3529;53.244;10.414;2022-09-03T13:49:49;26.40;82.50
6978;DHT22;3529;53.244;10.414;2022-09-03T13:53:06;26.30;83.90
6978;DHT22;3529;53.244;10.414;2022-09-03T13:58:08;26.40;82.40
6978;DHT22;3529;53.244;10.414;2022-09-03T14:00:52;26.40;83.10
6978;DHT22;3529;53.244;10.414;2022-09-03T14:03:32;26.60;83.50
6978;DHT22;3529;53.244;10.414;2022-09-03T14:06:20;26.50;82.30
6978;DHT22;3529;53.244;10.414;2022-09-03T14:14:49;24.90;83.80
6978;DHT22;3529;53.244;10.414;2022-09-03T14:20:12;25.10;84.40
6978;DHT22;3529;53.244;10.414;2022-09-03T14:25:16;25.70;85.00
6978;DHT22;3529;53.244;10.414;2022-09-03T14:27:42;25.70;83.00
6978;DHT22;3529;53.244;10.414;2022-09-03T14:30:40;25.50;84.50
6978;DHT22;3529;53.244;10.414;2022-09-03T14:33:26;25.40;84.60
6978;DHT22;3529;53.244;10.414;2022-09-03T14:38:39;25.90;86.10
6978;DHT22;3529;53.244;10.414;2022-09-03T14:46:33;26.20;84.20
6978;DHT22;3529;53.244;10.414;2022-09-03T14:52:06;26.00;84.10
6978;DHT22;3529;53.244;10.414;2022-09-03T15:02:54;25.50;82.10
6978;DHT22;3529;53.244;10.414;2022-09-03T15:06:10;24.90;84.00
6978;DHT22;3529;53.244;10.414;2022-09-03T15:08:48;24.60;85.20
6978;DHT22;3529;53.244;10.414;2022-09-03T15:11:27;24.40;83.90
6978;DHT22;3529;53.244;10.414;2022-09-03T15:19:39;24.70;84.00
6978;DHT22;3529;53.244;10.414;2022-09-03T15:30:14;24.40;84.20
6978;DHT22;3529;53.244;10.414;2022-09-03T15:32:49;24.30;83.30
6978;DHT22;3529;53.244;10.414;2022-09-03T15:35:37;24.20;83.70
6978;DHT22;3529;53.244;10.414;2022-09-03T15:38:31;24.00;84.30
6978;DHT22;3529;53.244;10.414;2022-09-03T15:41:18;23.80;84.20
6978;DHT22;3529;53.244;10.414;2022-09-03T15:43:48;23.60;84.40
6978;DHT22;3529;53.244;10.414;2022-09-03T15:46:39;23.50;83.40
6978;DHT22;3529;53.244;10.414;2022-09-03T15:49:19;23.40;83.90
6978;DHT22;3529;53.244;10.414;2022-09-03T15:54:45;23.10;83.90
6978;DHT22;3529;53.244;10.414;2022-09-03T15:57:32;22.90;83.60
6978;DHT22;3529;53.244;10.414;2022-09-03T16:00:06;22.80;84.60
6978;DHT22;3529;53.244;10.414;2022-09-03T16:02:58;22.70;85.00
6978;DHT22;3529;53.244;10.414;2022-09-03T16:05:41;22.60;85.40
6978;DHT22;3529;53.244;10.414;2022-09-03T16:13:55;22.20;86.20
6978;DHT22;3529;53.244;10.414;2022-09-03T16:19:54;22.00;86.50
6978;DHT22;3529;53.244;10.414;2022-09-03T16:22:29;21.90;86.90
6978;DHT22;3529;53.244;10.414;2022-09-03T16:27:51;21.70;87.80
6978;DHT22;3529;53.244;10.414;2022-09-03T16:36:33;21.40;88.40
6978;DHT22;3529;53.244;10.414;2022-09-03T16:44:35;21.30;87.70
6978;DHT22;3529;53.244;10.414;2022-09-03T16:50:16;21.10;88.20
6978;DHT22;3529;53.244;10.414;2022-09-03T16:58:39;20.90;89.10
6978;DHT22;3529;53.244;10.414;2022-09-03T17:04:25;20.70;89.90
6978;DHT22;3529;53.244;10.414;2022-09-03T17:10:30;20.60;89.60
6978;DHT22;3529;53.244;10.414;2022-09-03T17:24:44;20.20;90.10
6978;DHT22;3529;53.244;10.414;2022-09-03T17:30:34;20.10;89.90
6978;DHT22;3529;53.244;10.414;2022-09-03T17:36:16;19.90;90.20
6978;DHT22;3529;53.244;10.414;2022-09-03T17:44:20;19.70;90.10
6978;DHT22;3529;53.244;10.414;2022-09-03T17:54:55;19.40;90.60
6978;DHT22;3529;53.244;10.414;2022-09-03T17:57:31;19.30;90.90
6978;DHT22;3529;53.244;10.414;2022-09-03T18:00:08;19.20;90.80
6978;DHT22;3529;53.244;10.414;2022-09-03T18:02:49;19.10;90.70
6978;DHT22;3529;53.244;10.414;2022-09-03T18:13:49;18.70;91.40
6978;DHT22;3529;53.244;10.414;2022-09-03T18:18:51;18.50;91.70
6978;DHT22;3529;53.244;10.414;2022-09-03T18:21:20;18.40;91.90
6978;DHT22;3529;53.244;10.414;2022-09-03T18:24:26;18.20;92.10
6978;DHT22;3529;53.244;10.414;2022-09-03T18:27:18;18.10;92.20
6978;DHT22;3529;53.244;10.414;2022-09-03T18:30:09;17.90;92.20
6978;DHT22;3529;53.244;10.414;2022-09-03T18:32:55;17.80;92.30
6978;DHT22;3529;53.244;10.414;2022-09-03T18:35:42;17.70;92.80
6978;DHT22;3529;53.244;10.414;2022-09-03T18:38:30;17.60;92.90
6978;DHT22;3529;53.244;10.414;2022-09-03T18:41:44;17.60;92.90
6978;DHT22;3529;53.244;10.414;2022-09-03T18:45:00;17.50;92.90
6978;DHT22;3529;53.244;10.414;2022-09-03T18:54:36;17.30;93.50
6978;DHT22;3529;53.244;10.414;2022-09-03T18:57:37;17.20;93.60
6978;DHT22;3529;53.244;10.414;2022-09-03T19:00:23;17.10;93.80
6978;DHT22;3529;53.244;10.414;2022-09-03T19:03:34;17.00;94.00
6978;DHT22;3529;53.244;10.414;2022-09-03T19:12:31;16.70;94.50
6978;DHT22;3529;53.244;10.414;2022-09-03T19:15:23;16.70;94.80
6978;DHT22;3529;53.244;10.414;2022-09-03T19:18:27;16.60;95.10
6978;DHT22;3529;53.244;10.414;2022-09-03T19:21:26;16.50;95.10
6978;DHT22;3529;53.244;10.414;2022-09-03T19:24:12;16.40;95.30
6978;DHT22;3529;53.244;10.414;2022-09-03T19:42:08;16.20;95.60
6978;DHT22;3529;53.244;10.414;2022-09-03T19:51:33;16.10;96.10
6978;DHT22;3529;53.244;10.414;2022-09-03T19:54:23;16.00;96.00
6978;DHT22;3529;53.244;10.414;2022-09-03T19:57:10;15.90;96.30
6978;DHT22;3529;53.244;10.414;2022-09-03T19:59:56;15.90;96.40
6978;DHT22;3529;53.244;10.414;2022-09-03T20:02:42;15.80;96.40
6978;DHT22;3529;53.244;10.414;2022-09-03T20:05:29;15.80;96.60
6978;DHT22;3529;53.244;10.414;2022-09-03T20:08:16;15.70;96.80
6978;DHT22;3529;53.244;10.414;2022-09-03T20:11:01;15.60;96.90
6978;DHT22;3529;53.244;10.414;2022-09-03T20:13:28;15.60;97.10
6978;DHT22;3529;53.244;10.414;2022-09-03T20:16:20;15.60;97.40
6978;DHT22;3529;53.244;10.414;2022-09-03T20:19:03;15.50;97.50
6978;DHT22;3529;53.244;10.414;2022-09-03T20:30:14;15.30;97.70
6978;DHT22;3529;53.244;10.414;2022-09-03T20:33:14;15.20;97.80
6978;DHT22;3529;53.244;10.414;2022-09-03T20:46:19;15.20;98.50
6978;DHT22;3529;53.244;10.414;2022-09-03T20:49:12;15.20;98.50
6978;DHT22;3529;53.244;10.414;2022-09-03T20:52:02;15.10;98.50
6978;DHT22;3529;53.244;10.414;2022-09-03T20:55:04;15.10;98.70
6978;DHT22;3529;53.244;10.414;2022-09-03T20:57:42;15.00;98.70
6978;DHT22;3529;53.244;10.414;2022-09-03T21:00:15;15.00;98.90
6978;DHT22;3529;53.244;10.414;2022-09-03T21:03:05;15.00;99.20
6978;DHT22;3529;53.244;10.414;2022-09-03T21:11:39;14.90;99.40
6978;DHT22;3529;53.244;10.414;2022-09-03T21:22:58;14.70;99.90
6978;DHT22;3529;53.244;10.414;2022-09-03T21:25:34;14.80;99.90
6978;DHT22;3529;53.244;10.414;2022-09-03T21:28:16;14.80;99.90
6978;DHT22;3529;53.244;10.414;2022-09-03T21:30:47;14.70;99.90
6978;DHT22;3529;53.244;10.414;2022-09-03T21:33:19;14.60;99.90
6978;DHT22;3529;53.244;10.414;2022-09-03T21:35:58;14.70;99.90
6978;DHT22;3529;53.244;10.414;2022-09-03T21:38:26;14.60;99.90
6978;DHT22;3529;53.244;10.414;2022-09-03T21:44:12;14.60;99.90
6978;DHT22;3529;53.244;10.414;2022-09-03T21:47:04;14.60;99.90
6978;DHT22;3529;53.244;10.414;2022-09-03T21:49:51;14.60;99.90
6978;DHT22;3529;53.244;10.414;2022-09-03T21:52:28;14.60;99.90